Brownsboro, Texas
Current Conditions -  °F | °C
As of 1:53 AM on Friday 24 Oct 2014 (Local Time) from KTYR Reporting Station
Clear Clear  
Wind Chill: 59°   Ceiling: Unl
Heat Index: 59°   Visibility: 10mi
Dew Point: 53°   Wind: 3mph
Humidity: 81%   Direction: 180°S
Pressure: 30.13"   Gusts: NA
Location:  32.3°N, 95.61°W
Report Text: KTYR 240653Z 18003KT 10SM CLR 15/12 A3013 RMK AO2 SLP199 T01500117
Loading
Personal Weather Stations






























Interactive Weather Map
Tropical Storm Tracking
New forecast layout! Learn more

10-Day Weather Forecast

Advertisements
Track Severe Weather on mobile